KADM/ADM METAR and TAF weather

Enter ICAO airport designator
Station Type Date Time Source
KADM METAR 2019/10/21 21:55 UTC NOAA

KADM 212155Z 27009KT 10SM CLR 22/M01 A2989


Station Type Date Time Source
KADM Decoded METAR 2019/10/21 21:55 UTC NOAA

Ardmore, Ardmore Municipal Airport, OK, United States (KADM) 34-18-11N 097-01-10W
Oct 21, 2019 - 05:55 PM EDT / 2019.10.21 2155 UTC
Wind: from the W (270 degrees) at 10 MPH (9 KT):0
Visibility: 10 mile(s):0
Sky conditions: clear
Temperature: 71 F (22 C)
Dew Point: 30 F (-1 C)
Relative Humidity: 21%
Pressure (altimeter): 29.89 in. Hg (1012 hPa)
ob: KADM 212155Z 27009KT 10SM CLR 22/M01 A2989
cycle: 22

Station Type Date Time Source
KADM TAF UTC NOAA

Error!

Example: see airport list